TimeCST,TemperatureF,Dew PointF,Humidity,Sea Level PressureIn,VisibilityMPH,Wind Direction,Wind SpeedMPH,Gust SpeedMPH,PrecipitationIn,Events,Conditions,WindDirDegrees,DateUTC
12:54 AM,33.1,32.0,96,30.25,4.0,NW,4.6,-,N/A,,Overcast,310,2012-11-05 06:54:00
1:47 AM,33.8,32.0,93,30.19,5.0,West,3.5,-,N/A,,Overcast,270,2012-11-05 07:47:00
1:54 AM,33.1,32.0,96,30.26,5.0,West,3.5,-,N/A,,Overcast,270,2012-11-05 07:54:00
2:15 AM,33.8,32.0,93,30.19,5.0,Calm,Calm,-,N/A,,Overcast,0,2012-11-05 08:15:00
2:54 AM,33.1,32.0,96,30.25,4.0,Calm,Calm,-,N/A,,Overcast,0,2012-11-05 08:54:00
3:23 AM,33.8,32.0,93,30.17,3.0,Calm,Calm,-,N/A,,Overcast,0,2012-11-05 09:23:00
3:47 AM,33.8,32.0,93,30.16,2.5,SW,3.5,-,N/A,,Overcast,220,2012-11-05 09:47:00
3:54 AM,33.1,32.0,96,30.23,2.5,SW,3.5,-,N/A,,Overcast,230,2012-11-05 09:54:00
4:38 AM,33.8,32.0,93,30.14,2.0,Calm,Calm,-,N/A,,Overcast,0,2012-11-05 10:38:00
4:54 AM,33.1,32.0,96,30.20,2.5,SSW,3.5,-,N/A,,Overcast,210,2012-11-05 10:54:00
5:07 AM,33.8,32.0,93,30.14,2.5,SSW,3.5,-,N/A,,Overcast,200,2012-11-05 11:07:00
5:22 AM,33.8,32.0,93,30.14,2.5,Calm,Calm,-,N/A,,Overcast,0,2012-11-05 11:22:00
5:43 AM,33.8,32.0,93,30.14,1.5,SW,4.6,-,N/A,,Overcast,220,2012-11-05 11:43:00
5:54 AM,33.1,32.0,96,30.20,1.5,SW,3.5,-,N/A,,Overcast,220,2012-11-05 11:54:00
6:05 AM,33.8,33.8,100,30.13,2.0,SSW,3.5,-,N/A,,Overcast,210,2012-11-05 12:05:00
6:54 AM,33.1,33.1,100,30.17,2.5,SSE,3.5,-,N/A,,Overcast,160,2012-11-05 12:54:00
7:20 AM,33.8,32.0,93,30.10,3.0,South,4.6,-,N/A,,Overcast,170,2012-11-05 13:20:00
7:50 AM,33.8,32.0,93,30.08,3.0,South,5.8,-,N/A,,Overcast,180,2012-11-05 13:50:00
7:54 AM,33.1,32.0,96,30.15,4.0,South,6.9,-,N/A,,Overcast,190,2012-11-05 13:54:00
8:54 AM,34.0,32.0,92,30.13,10.0,South,9.2,-,N/A,,Overcast,190,2012-11-05 14:54:00
9:03 AM,33.8,32.0,93,30.05,10.0,South,9.2,-,N/A,,Overcast,170,2012-11-05 15:03:00
9:46 AM,33.8,32.0,93,30.01,10.0,SSE,10.4,-,N/A,,Overcast,160,2012-11-05 15:46:00
9:54 AM,35.1,32.0,89,30.08,10.0,South,12.7,-,N/A,,Overcast,170,2012-11-05 15:54:00
10:54 AM,35.1,32.0,89,30.03,3.0,South,18.4,-,N/A,,Overcast,170,2012-11-05 16:54:00
11:54 AM,35.1,32.0,89,29.99,10.0,South,13.8,-,N/A,,Overcast,180,2012-11-05 17:54:00
12:54 PM,35.1,33.1,92,29.93,10.0,SSE,12.7,-,0.00,,Overcast,160,2012-11-05 18:54:00
1:54 PM,36.0,34.0,93,29.85,8.0,SSE,12.7,-,0.05,Rain,Light Rain,150,2012-11-05 19:54:00
2:54 PM,37.0,35.1,93,29.80,10.0,SSE,11.5,-,0.00,,Overcast,160,2012-11-05 20:54:00
3:14 PM,37.4,35.6,93,29.74,10.0,South,10.4,19.6,N/A,,Overcast,170,2012-11-05 21:14:00
3:44 PM,39.2,37.4,93,29.72,9.0,South,13.8,21.9,0.00,Rain,Light Rain,180,2012-11-05 21:44:00
3:54 PM,39.9,37.9,93,29.77,10.0,SSE,13.8,-,0.00,,Mostly Cloudy,160,2012-11-05 21:54:00
4:54 PM,42.1,37.9,85,29.76,10.0,South,12.7,19.6,N/A,,Scattered Clouds,190,2012-11-05 22:54:00
5:54 PM,45.0,39.9,82,29.76,10.0,SW,11.5,20.7,N/A,,Overcast,230,2012-11-05 23:54:00
6:43 PM,48.2,42.8,82,29.75,10.0,West,24.2,28.8,N/A,,Overcast,280,2012-11-06 00:43:00
6:54 PM,46.0,41.0,83,29.80,10.0,West,23.0,32.2,N/A,,Mostly Cloudy,280,2012-11-06 00:54:00
7:06 PM,44.6,39.2,81,29.76,10.0,WNW,21.9,31.1,N/A,,Scattered Clouds,290,2012-11-06 01:06:00
7:54 PM,43.0,37.0,80,29.83,10.0,WNW,27.6,35.7,N/A,,Mostly Cloudy,290,2012-11-06 01:54:00
8:54 PM,39.9,34.0,79,29.85,10.0,West,19.6,28.8,N/A,,Clear,280,2012-11-06 02:54:00
9:54 PM,39.9,34.0,79,29.89,10.0,West,17.3,-,N/A,,Clear,280,2012-11-06 03:54:00
10:54 PM,39.0,30.9,73,29.90,10.0,West,16.1,-,N/A,,Clear,270,2012-11-06 04:54:00
11:54 PM,39.0,30.0,70,29.90,10.0,West,21.9,31.1,N/A,,Clear,280,2012-11-06 05:54:00